Time;durP1;ratioP1;P1;durP2;ratioP2;P2;SDS_P1;SDS_P2;PMS_P1;PMS_P2;Temp;Humidity;BMP_temperature;BMP_pressure;BME280_temperature;BME280_humidity;BME280_pressure;Samples;Min_cycle;Max_cycle;Signal;HPM_P1;HPM_P2
2023/09/29 00:00:57;;;;;;;9.83;4.77;;;;;;;17.13;76.41;95117.53;5158042;27;20187;-44
2023/09/29 00:03:24;;;;;;;8.57;4.70;;;;;;;17.10;76.51;95110.94;5134969;27;20256;-44
2023/09/29 00:05:54;;;;;;;9.43;4.37;;;;;;;17.09;76.63;95105.91;5132384;27;20196;-43
2023/09/29 00:08:22;;;;;;;9.23;3.77;;;;;;;17.08;76.51;95112.88;5131921;27;20293;-44
2023/09/29 00:10:51;;;;;;;10.60;4.73;;;;;;;17.07;76.57;95113.84;5155718;27;20199;-42
2023/09/29 00:13:17;;;;;;;9.87;4.70;;;;;;;17.04;76.81;95106.41;5153332;27;20203;-44
2023/09/29 00:15:44;;;;;;;13.50;4.33;;;;;;;17.04;76.58;95103.84;5153144;27;20191;-45
2023/09/29 00:18:11;;;;;;;16.07;5.23;;;;;;;17.02;76.58;95106.59;5153372;27;20187;-45
2023/09/29 00:20:38;;;;;;;7.40;5.03;;;;;;;17.02;76.70;95105.78;5154176;27;20175;-45
2023/09/29 00:23:06;;;;;;;9.27;4.83;;;;;;;17.00;76.70;95105.94;5166112;27;20186;-45
2023/09/29 00:25:33;;;;;;;8.83;4.47;;;;;;;16.99;76.65;95106.13;5164527;27;20203;-43
2023/09/29 00:28:00;;;;;;;12.43;4.57;;;;;;;17.00;76.68;95110.31;5152377;27;20223;-43
2023/09/29 00:30:27;;;;;;;6.83;3.97;;;;;;;16.95;76.57;95110.81;5152472;27;20282;-45
2023/09/29 00:32:54;;;;;;;9.60;4.10;;;;;;;16.74;76.42;95079.56;5159036;27;20202;-45
2023/09/29 00:35:27;;;;;;;10.93;4.53;;;;;;;16.91;76.22;95104.38;5173206;27;20190;-43
2023/09/29 00:37:54;;;;;;;6.23;3.87;;;;;;;16.87;76.16;95099.69;5173016;27;20175;-45
2023/09/29 00:40:23;;;;;;;9.63;4.27;;;;;;;16.74;76.10;95087.28;5163972;27;20294;-45
2023/09/29 00:42:50;;;;;;;12.53;4.20;;;;;;;16.86;76.06;95109.22;5153526;27;20188;-45
2023/09/29 00:45:20;;;;;;;7.77;4.17;;;;;;;16.84;75.87;95112.94;5171767;27;20218;-43
2023/09/29 00:47:49;;;;;;;10.27;4.70;;;;;;;16.77;75.85;95105.84;5173265;27;20274;-44
2023/09/29 00:50:16;;;;;;;11.67;4.47;;;;;;;16.78;76.01;95107.47;5173374;27;20180;-44
2023/09/29 00:52:44;;;;;;;7.20;4.20;;;;;;;16.78;75.84;95109.25;5171130;27;20195;-44
2023/09/29 00:55:13;;;;;;;7.43;3.80;;;;;;;16.74;75.73;95108.75;5160571;27;20191;-43
2023/09/29 00:57:42;;;;;;;8.27;3.83;;;;;;;16.72;75.62;95099.56;5152485;27;20314;-44
2023/09/29 01:00:15;;;;;;;9.53;4.37;;;;;;;16.48;75.52;95067.63;5152021;27;20187;-42
2023/09/29 01:02:43;;;;;;;13.23;4.17;;;;;;;16.67;75.52;95105.22;5151849;27;20196;-45
2023/09/29 01:05:12;;;;;;;6.50;3.87;;;;;;;16.55;75.42;95088.44;5159921;27;20203;-45
2023/09/29 01:07:41;;;;;;;11.47;4.63;;;;;;;16.61;75.22;95100.69;5167741;27;20184;-42
2023/09/29 01:10:10;;;;;;;6.43;3.53;;;;;;;16.57;75.63;95099.41;5151950;27;20217;-43
2023/09/29 01:12:37;;;;;;;11.80;3.70;;;;;;;16.46;75.96;95087.66;5151737;27;20645;-43
2023/09/29 01:15:08;;;;;;;7.67;3.47;;;;;;;16.53;75.96;95100.69;5153406;27;20187;-44
2023/09/29 01:17:35;;;;;;;6.30;3.50;;;;;;;16.53;75.84;95095.53;5151484;27;20183;-45
2023/09/29 01:20:04;;;;;;;5.70;3.70;;;;;;;16.51;76.18;95098.28;5133304;27;20188;-43
2023/09/29 01:22:31;;;;;;;8.97;3.80;;;;;;;16.46;76.23;95097.19;5151643;27;20626;-44
2023/09/29 01:25:01;;;;;;;7.90;3.40;;;;;;;16.49;76.07;95100.25;5152938;27;20223;-42
2023/09/29 01:27:28;;;;;;;9.20;3.80;;;;;;;16.45;75.98;95091.22;5165379;27;20221;-44
2023/09/29 01:29:55;;;;;;;9.73;4.10;;;;;;;16.46;75.98;95098.00;5172204;27;20330;-43
2023/09/29 01:32:21;;;;;;;8.37;4.17;;;;;;;16.46;75.89;95097.19;5172210;27;20255;-43
2023/09/29 01:34:48;;;;;;;9.07;3.83;;;;;;;16.43;75.89;95100.88;5172047;27;20259;-44
2023/09/29 01:37:15;;;;;;;12.87;3.57;;;;;;;16.37;75.58;95093.00;5160128;27;20213;-43
2023/09/29 01:39:42;;;;;;;5.90;3.87;;;;;;;16.39;75.84;95107.34;5150753;27;20192;-44
2023/09/29 01:42:10;;;;;;;11.83;4.87;;;;;;;16.39;76.02;95102.19;5151285;27;20187;-44
2023/09/29 01:44:37;;;;;;;14.93;4.17;;;;;;;16.36;76.10;95102.50;5151012;27;20203;-43
2023/09/29 01:47:04;;;;;;;5.37;3.93;;;;;;;16.35;75.72;95106.06;5151882;27;20184;-43
2023/09/29 01:49:30;;;;;;;11.10;3.87;;;;;;;16.34;75.90;95111.41;5169857;27;20189;-44
2023/09/29 01:51:57;;;;;;;8.13;3.90;;;;;;;16.32;75.98;95103.81;5171842;27;20190;-43
2023/09/29 01:54:24;;;;;;;7.40;3.50;;;;;;;16.30;75.93;95098.81;5171825;27;20286;-45
2023/09/29 01:56:51;;;;;;;10.80;3.67;;;;;;;16.27;76.05;95101.69;5170979;27;20186;-44
2023/09/29 01:59:19;;;;;;;7.87;3.40;;;;;;;16.22;76.57;95109.13;5170437;27;20194;-45
2023/09/29 02:01:46;;;;;;;10.17;3.90;;;;;;;16.19;76.54;95099.16;5171542;27;20507;-45
2023/09/29 02:04:13;;;;;;;5.03;3.60;;;;;;;16.17;76.88;95105.44;5171658;27;20225;-43
2023/09/29 02:06:40;;;;;;;8.17;3.87;;;;;;;16.17;76.89;95102.84;5171708;27;20194;-44
2023/09/29 02:09:09;;;;;;;11.70;4.00;;;;;;;16.15;76.62;95099.59;5169144;27;20227;-45
2023/09/29 02:11:38;;;;;;;10.00;3.60;;;;;;;16.16;76.88;95107.22;5171443;27;20199;-44
2023/09/29 02:14:05;;;;;;;10.80;4.07;;;;;;;16.19;76.99;95106.06;5171370;27;20644;-42
2023/09/29 02:16:33;;;;;;;7.63;3.97;;;;;;;16.20;76.81;95105.13;5171422;27;20682;-43
2023/09/29 02:18:59;;;;;;;8.73;3.30;;;;;;;16.20;76.73;95099.94;5169765;27;20187;-44
2023/09/29 02:21:28;;;;;;;10.40;3.63;;;;;;;16.28;76.72;95107.69;5155676;27;20195;-44
2023/09/29 02:23:55;;;;;;;7.23;4.30;;;;;;;16.30;76.95;95105.75;5150498;27;20571;-44
2023/09/29 02:26:23;;;;;;;8.57;3.67;;;;;;;16.31;77.03;95097.81;5150628;27;20721;-43
2023/09/29 02:28:49;;;;;;;9.13;3.80;;;;;;;16.35;76.54;95103.47;5150305;27;20246;-44
2023/09/29 02:31:16;;;;;;;9.17;3.70;;;;;;;16.37;76.56;95101.56;5152095;27;20180;-43
2023/09/29 02:33:45;;;;;;;14.03;3.63;;;;;;;16.41;76.33;95102.84;5156812;27;20247;-45
2023/09/29 02:36:11;;;;;;;10.20;3.80;;;;;;;16.48;76.39;95113.31;5171650;27;20240;-44
2023/09/29 02:38:38;;;;;;;6.77;3.27;;;;;;;16.48;76.41;95108.94;5171640;27;20190;-44
2023/09/29 02:41:07;;;;;;;9.20;3.80;;;;;;;16.50;76.11;95112.19;5168990;27;20187;-42
2023/09/29 02:43:33;;;;;;;11.43;3.53;;;;;;;16.49;76.05;95109.75;5171388;27;20193;-44
2023/09/29 02:46:00;;;;;;;12.97;3.97;;;;;;;16.46;75.83;95108.31;5170833;27;20620;-44
2023/09/29 02:48:27;;;;;;;6.50;3.30;;;;;;;16.46;75.68;95108.31;5170776;27;20194;-45
2023/09/29 02:50:55;;;;;;;11.47;3.57;;;;;;;16.48;75.44;95116.69;5171177;27;20191;-43
2023/09/29 02:53:22;;;;;;;7.90;3.50;;;;;;;16.48;75.32;95116.69;5167519;27;20241;-43
2023/09/29 02:55:51;;;;;;;10.40;3.80;;;;;;;16.51;75.33;95118.16;5154606;27;20184;-43
2023/09/29 02:58:19;;;;;;;9.07;3.60;;;;;;;16.51;75.58;95120.72;5154392;27;20620;-43
2023/09/29 03:00:45;;;;;;;7.37;4.00;;;;;;;16.49;75.66;95120.91;5153797;27;20270;-44
2023/09/29 03:03:14;;;;;;;10.87;3.63;;;;;;;16.50;75.74;95121.72;5155510;27;20638;-42
2023/09/29 03:05:41;;;;;;;6.20;4.13;;;;;;;16.45;76.14;95114.44;5158805;27;20264;-43
2023/09/29 03:08:09;;;;;;;8.87;3.33;;;;;;;16.49;75.81;95123.50;5154513;27;20214;-45
2023/09/29 03:10:36;;;;;;;7.43;3.73;;;;;;;16.48;76.32;95123.63;5154000;27;20183;-43
2023/09/29 03:13:03;;;;;;;7.50;3.93;;;;;;;16.48;76.38;95127.00;5155184;27;20198;-43
2023/09/29 03:15:30;;;;;;;5.50;3.70;;;;;;;16.49;76.35;95133.81;5155984;27;20608;-43
2023/09/29 03:17:56;;;;;;;3.87;3.53;;;;;;;16.49;76.16;95123.50;5174123;27;20282;-44
2023/09/29 03:20:23;;;;;;;10.17;3.40;;;;;;;16.50;76.16;95127.69;5175284;27;20350;-44
2023/09/29 03:22:50;;;;;;;10.17;3.83;;;;;;;16.52;76.23;95123.13;5174948;27;20194;-45
2023/09/29 03:25:20;;;;;;;9.30;3.60;;;;;;;16.54;76.12;95123.78;5170349;27;20226;-45
2023/09/29 03:27:48;;;;;;;5.27;3.57;;;;;;;16.54;76.18;95123.00;5153616;27;20343;-44
2023/09/29 03:30:15;;;;;;;8.87;3.97;;;;;;;16.54;75.93;95120.41;5153970;27;20191;-44
2023/09/29 03:32:42;;;;;;;12.30;4.13;;;;;;;16.56;75.87;95119.25;5153538;27;20196;-44
2023/09/29 03:35:10;;;;;;;7.73;3.70;;;;;;;16.55;76.10;95122.81;5153826;27;20251;-44
2023/09/29 03:37:39;;;;;;;17.60;3.77;;;;;;;16.35;76.09;95087.19;5153787;27;20240;-43
2023/09/29 03:40:08;;;;;;;8.40;3.80;;;;;;;16.31;76.11;95086.69;5155406;27;20176;-43
2023/09/29 03:42:38;;;;;;;7.17;4.00;;;;;;;16.57;76.32;95127.81;5173787;27;20644;-44
2023/09/29 03:45:06;;;;;;;6.30;3.67;;;;;;;16.58;76.46;95133.78;5174424;27;20227;-44
2023/09/29 03:47:34;;;;;;;6.73;4.40;;;;;;;16.56;76.54;95136.53;5174709;27;20186;-44
2023/09/29 03:50:01;;;;;;;12.43;3.97;;;;;;;16.52;76.46;95132.66;5174109;27;20197;-45
2023/09/29 03:52:29;;;;;;;13.53;4.20;;;;;;;16.45;76.47;95127.38;5163157;27;20190;-43
2023/09/29 03:54:56;;;;;;;8.27;3.83;;;;;;;16.42;76.54;95125.09;5168897;27;20183;-45
2023/09/29 03:57:23;;;;;;;10.43;3.67;;;;;;;16.42;76.63;95124.28;5173985;27;20209;-45
2023/09/29 03:59:52;;;;;;;9.17;3.83;;;;;;;16.36;76.72;95120.56;5173909;27;20343;-44
2023/09/29 04:02:20;;;;;;;10.67;3.73;;;;;;;16.37;76.47;95123.97;5161835;27;20215;-44
2023/09/29 04:04:47;;;;;;;10.97;4.07;;;;;;;16.36;76.15;95128.31;5173855;27;20576;-46
2023/09/29 04:07:15;;;;;;;7.40;3.63;;;;;;;16.36;76.16;95122.34;5173526;27;20182;-44
2023/09/29 04:09:42;;;;;;;13.20;3.70;;;;;;;16.34;76.27;95121.72;5174031;27;20187;-44
2023/09/29 04:12:09;;;;;;;6.90;3.90;;;;;;;16.33;76.13;95123.50;5158043;27;20283;-44
2023/09/29 04:14:35;;;;;;;6.30;3.80;;;;;;;16.35;76.02;95125.91;5152653;27;20501;-44
2023/09/29 04:17:04;;;;;;;10.27;4.10;;;;;;;16.34;76.11;95126.88;5152754;27;20287;-45
2023/09/29 04:19:32;;;;;;;9.73;4.63;;;;;;;16.33;76.11;95127.84;5152594;27;20206;-43
2023/09/29 04:21:59;;;;;;;15.20;4.87;;;;;;;16.32;76.26;95129.63;5152959;27;20191;-43
2023/09/29 04:24:27;;;;;;;9.83;3.80;;;;;;;16.33;76.20;95128.66;5152664;27;20183;-44
2023/09/29 04:26:53;;;;;;;6.93;3.53;;;;;;;16.33;76.48;95126.06;5165993;27;20205;-43
2023/09/29 04:29:20;;;;;;;10.17;4.10;;;;;;;16.34;76.50;95127.69;5173087;27;20772;-47
2023/09/29 04:31:47;;;;;;;11.70;4.43;;;;;;;16.35;76.42;95128.47;5171956;27;20209;-43
2023/09/29 04:34:15;;;;;;;14.33;4.37;;;;;;;16.36;76.43;95130.91;5173494;27;20186;-45
2023/09/29 04:36:42;;;;;;;12.73;4.27;;;;;;;16.37;76.63;95129.94;5173419;27;20191;-44
2023/09/29 04:39:09;;;;;;;11.67;4.40;;;;;;;16.39;76.29;95132.34;5173633;27;20640;-43
2023/09/29 04:41:37;;;;;;;8.50;4.37;;;;;;;15.88;76.14;95049.16;5173557;27;20211;-45
2023/09/29 04:44:05;;;;;;;7.67;4.60;;;;;;;16.42;75.74;95135.44;5172754;27;20179;-43
2023/09/29 04:46:33;;;;;;;6.93;3.63;;;;;;;16.47;74.86;95134.94;5173293;27;20227;-43
2023/09/29 04:49:03;;;;;;;11.57;4.57;;;;;;;16.50;73.72;95139.78;5172702;27;20655;-43
2023/09/29 04:51:31;;;;;;;11.70;3.73;;;;;;;16.50;73.56;95138.00;5131452;27;20195;-43
2023/09/29 04:53:58;;;;;;;8.73;3.80;;;;;;;16.54;73.43;95138.50;5131369;27;20177;-44
2023/09/29 04:56:25;;;;;;;12.17;4.50;;;;;;;16.54;73.47;95143.66;5131303;27;20188;-44
2023/09/29 04:58:52;;;;;;;20.10;4.97;;;;;;;16.59;73.22;95143.16;5131609;27;20196;-45
2023/09/29 05:01:19;;;;;;;12.60;3.90;;;;;;;16.59;73.24;95146.53;5134508;27;20180;-45
2023/09/29 05:03:47;;;;;;;12.07;4.03;;;;;;;16.65;73.17;95145.88;5155515;27;20571;-44
2023/09/29 05:06:13;;;;;;;10.73;4.13;;;;;;;16.68;73.29;95148.16;5151646;27;20975;-45
2023/09/29 05:08:42;;;;;;;6.57;4.27;;;;;;;16.71;73.16;95154.75;5151606;27;20199;-43
2023/09/29 05:11:08;;;;;;;10.23;4.87;;;;;;;16.72;73.17;95151.22;5149119;27;20200;-45
2023/09/29 05:13:35;;;;;;;14.80;4.30;;;;;;;16.74;73.16;95144.91;5149221;27;20334;-44
2023/09/29 05:16:02;;;;;;;9.10;4.30;;;;;;;16.82;73.09;95158.81;5148616;27;20191;-45
2023/09/29 05:18:29;;;;;;;11.20;4.17;;;;;;;16.87;73.21;95152.16;5147818;27;20187;-44
2023/09/29 05:20:56;;;;;;;9.63;4.27;;;;;;;17.00;72.81;95162.78;5142056;27;20656;-42
2023/09/29 05:23:22;;;;;;;10.73;5.03;;;;;;;17.11;72.65;95159.06;5149610;27;20215;-44
2023/09/29 05:25:51;;;;;;;17.90;4.80;;;;;;;17.28;72.44;95158.03;5151011;27;20306;-45
2023/09/29 05:28:19;;;;;;;12.87;4.83;;;;;;;17.39;72.18;95163.78;5150288;27;20231;-45
2023/09/29 05:30:54;;;;;;;9.80;4.30;;;;;;;17.50;72.04;95158.28;5150086;27;20199;-43
2023/09/29 05:33:21;;;;;;;13.47;5.87;;;;;;;17.46;71.57;95138.88;5150617;27;20187;-44
2023/09/29 05:35:48;;;;;;;18.53;6.00;;;;;;;17.69;71.25;95162.19;5150189;27;20584;-44
2023/09/29 05:38:15;;;;;;;17.90;5.80;;;;;;;17.82;70.39;95164.28;5150628;27;20622;-45
2023/09/29 05:40:42;;;;;;;11.87;5.30;;;;;;;17.87;70.32;95175.72;5150102;27;20544;-44
2023/09/29 05:43:11;;;;;;;16.13;5.63;;;;;;;17.93;70.05;95175.03;5150147;27;20553;-43
2023/09/29 05:45:38;;;;;;;18.33;5.57;;;;;;;18.07;69.53;95172.69;5147679;27;20657;-44
2023/09/29 05:48:06;;;;;;;15.03;5.93;;;;;;;18.20;69.06;95178.09;5150269;27;20196;-43
2023/09/29 05:50:33;;;;;;;15.57;5.97;;;;;;;18.26;68.88;95180.81;5150230;27;20195;-44
2023/09/29 05:53:00;;;;;;;12.73;5.40;;;;;;;18.32;68.71;95175.94;5151366;27;20224;-44
2023/09/29 05:55:27;;;;;;;17.20;5.27;;;;;;;18.34;68.32;95176.53;5150569;27;20194;-43
2023/09/29 05:57:53;;;;;;;16.37;6.00;;;;;;;17.80;68.35;95079.88;5149964;27;20580;-44
2023/09/29 06:00:22;;;;;;;13.47;5.67;;;;;;;18.40;68.65;95173.28;5150093;27;20194;-45
2023/09/29 06:02:49;;;;;;;17.50;5.67;;;;;;;18.29;68.46;95141.63;5150401;27;20605;-44
2023/09/29 06:05:15;;;;;;;20.20;6.57;;;;;;;18.56;67.99;95180.91;5149448;27;20631;-43
2023/09/29 06:07:42;;;;;;;18.20;6.07;;;;;;;18.63;68.20;95176.63;5150157;27;21959;-44
2023/09/29 06:10:10;;;;;;;21.90;7.13;;;;;;;18.71;68.03;95183.56;5149711;27;20184;-43
2023/09/29 06:12:37;;;;;;;23.03;6.37;;;;;;;18.77;67.34;95180.25;5150239;27;20198;-44
2023/09/29 06:15:05;;;;;;;20.00;6.97;;;;;;;18.82;67.25;95172.75;5150916;27;20270;-43
2023/09/29 06:17:34;;;;;;;14.40;6.07;;;;;;;19.03;66.16;95174.66;5149589;27;20661;-43
2023/09/29 06:20:01;;;;;;;16.13;6.27;;;;;;;19.14;65.21;95174.22;5149224;27;20223;-43
2023/09/29 06:22:28;;;;;;;19.20;6.00;;;;;;;19.32;64.22;95176.47;5150193;27;20183;-43
2023/09/29 06:24:54;;;;;;;18.67;6.10;;;;;;;19.51;63.52;95167.31;5150361;27;20263;-43
2023/09/29 06:27:22;;;;;;;23.13;6.17;;;;;;;19.70;62.48;95176.38;5153551;27;20227;-42
2023/09/29 06:29:50;;;;;;;19.15;5.90;;;;;;;19.80;60.90;95185.47;5153505;27;20188;-42
2023/09/29 06:32:17;;;;;;;15.50;4.47;;;;;;;19.86;60.06;95183.13;5154296;27;20187;-42
2023/09/29 06:34:45;;;;;;;23.05;5.70;;;;;;;19.99;60.06;95178.06;5153996;27;20192;-44
2023/09/29 06:37:12;;;;;;;24.52;6.93;;;;;;;20.04;60.12;95179.16;5154292;27;20624;-43
2023/09/29 06:39:39;;;;;;;18.33;5.35;;;;;;;19.77;60.36;95131.34;5154232;27;20195;-43
2023/09/29 06:42:07;;;;;;;19.13;5.75;;;;;;;19.95;60.10;95149.09;5154564;27;20676;-43
2023/09/29 06:44:34;;;;;;;12.23;6.03;;;;;;;20.17;59.37;95182.88;5153917;27;20188;-43
2023/09/29 06:47:01;;;;;;;14.95;5.40;;;;;;;20.24;58.83;95175.94;5153399;27;20622;-43
2023/09/29 06:49:28;;;;;;;15.63;6.28;;;;;;;20.26;58.43;95174.75;5153632;27;20621;-43
2023/09/29 06:51:56;;;;;;;17.70;5.60;;;;;;;20.33;57.52;95174.81;5153539;27;20187;-43
2023/09/29 06:54:23;;;;;;;15.85;5.20;;;;;;;20.53;56.64;95175.03;5153620;27;20236;-43
2023/09/29 06:56:50;;;;;;;9.77;4.68;;;;;;;20.50;55.60;95139.00;5153376;27;20179;-44
2023/09/29 06:59:17;;;;;;;11.68;4.78;;;;;;;20.88;54.45;95175.09;5153447;27;20639;-43
2023/09/29 07:01:44;;;;;;;12.25;5.25;;;;;;;21.12;53.97;95174.66;5153176;27;20188;-44
2023/09/29 07:04:11;;;;;;;17.20;5.20;;;;;;;21.41;53.22;95172.81;5153238;27;20274;-44
2023/09/29 07:06:37;;;;;;;8.45;4.63;;;;;;;21.63;52.93;95179.56;5153738;27;20247;-44
2023/09/29 07:09:07;;;;;;;15.63;4.65;;;;;;;21.75;52.15;95175.38;5153767;27;20184;-43
2023/09/29 07:11:33;;;;;;;13.98;5.07;;;;;;;21.75;51.84;95179.78;5153248;27;20176;-43
2023/09/29 07:14:00;;;;;;;12.98;4.60;;;;;;;21.60;52.17;95176.53;5153296;27;20250;-43
2023/09/29 07:16:27;;;;;;;11.65;4.22;;;;;;;21.50;51.87;95175.09;5153347;27;20259;-42
2023/09/29 07:18:54;;;;;;;16.88;4.50;;;;;;;21.46;52.07;95168.69;5152774;27;20226;-44
2023/09/29 07:21:21;;;;;;;12.15;4.93;;;;;;;21.55;52.20;95179.72;5153253;27;20260;-43
2023/09/29 07:23:47;;;;;;;11.02;3.90;;;;;;;21.46;51.45;95153.06;5152933;27;20191;-42
2023/09/29 07:26:16;;;;;;;16.55;4.50;;;;;;;21.91;51.07;95189.06;5152824;27;20373;-44
2023/09/29 07:28:43;;;;;;;15.68;5.13;;;;;;;22.38;49.69;95183.00;5152017;27;20279;-44
2023/09/29 07:31:10;;;;;;;17.38;5.13;;;;;;;22.79;48.71;95174.16;5152927;27;20203;-43
2023/09/29 07:33:37;;;;;;;13.00;4.70;;;;;;;23.14;47.93;95190.41;5152734;27;20184;-44
2023/09/29 07:36:05;;;;;;;16.42;5.07;;;;;;;23.41;47.21;95182.56;5152471;27;20214;-44
2023/09/29 07:38:32;;;;;;;18.00;5.38;;;;;;;23.72;47.31;95182.66;5151653;27;20240;-44
2023/09/29 07:41:04;;;;;;;16.90;5.38;;;;;;;24.00;45.32;95184.13;5134444;27;20191;-43
2023/09/29 07:43:32;;;;;;;13.25;6.50;;;;;;;24.39;45.62;95190.97;5152133;27;20283;-44
2023/09/29 07:45:59;;;;;;;12.25;5.50;;;;;;;24.61;43.72;95183.59;5153001;27;20191;-45
2023/09/29 07:48:27;;;;;;;16.20;4.72;;;;;;;24.73;44.39;95191.53;5152697;27;20473;-44
2023/09/29 07:50:54;;;;;;;8.23;4.30;;;;;;;24.73;42.97;95170.63;5149476;27;20265;-44
2023/09/29 07:53:21;;;;;;;11.90;4.70;;;;;;;25.03;42.56;95191.69;5152841;27;20240;-44
2023/09/29 07:55:48;;;;;;;5.18;3.15;;;;;;;25.11;42.47;95193.28;5152248;27;20191;-43
2023/09/29 07:58:16;;;;;;;9.68;3.92;;;;;;;25.12;41.02;95197.47;5152085;27;20180;-43
2023/09/29 08:00:44;;;;;;;10.18;3.63;;;;;;;25.11;39.96;95188.03;5134726;27;20188;-43
2023/09/29 08:03:11;;;;;;;9.20;3.60;;;;;;;25.06;40.32;95188.66;5152416;27;20232;-45
2023/09/29 08:05:38;;;;;;;7.75;3.80;;;;;;;25.09;40.17;95190.09;5150836;27;20202;-44
2023/09/29 08:08:06;;;;;;;7.95;3.60;;;;;;;25.13;39.94;95186.81;5151993;27;20228;-45
2023/09/29 08:10:33;;;;;;;9.88;3.05;;;;;;;25.20;39.68;95187.53;5152028;27;20195;-44
2023/09/29 08:12:59;;;;;;;7.55;3.33;;;;;;;25.26;39.00;95186.69;5152627;27;20191;-43
2023/09/29 08:15:26;;;;;;;8.85;3.67;;;;;;;25.39;38.76;95184.91;5152274;27;20179;-44
2023/09/29 08:17:54;;;;;;;9.60;3.28;;;;;;;25.52;38.74;95183.00;5152060;27;20648;-44
2023/09/29 08:20:22;;;;;;;12.98;3.67;;;;;;;25.74;37.65;95182.53;5148981;27;20187;-44
2023/09/29 08:22:48;;;;;;;11.95;3.53;;;;;;;26.06;37.39;95180.53;5152327;27;20207;-43
2023/09/29 08:25:15;;;;;;;5.70;3.15;;;;;;;26.37;38.06;95189.97;5151681;27;20256;-42
2023/09/29 08:27:42;;;;;;;12.27;3.15;;;;;;;26.52;36.70;95187.00;5151695;27;20231;-45
2023/09/29 08:30:10;;;;;;;7.70;2.97;;;;;;;26.57;36.00;95179.25;5151966;27;20212;-45
2023/09/29 08:32:38;;;;;;;10.55;2.90;;;;;;;26.54;37.04;95176.25;5151391;27;20237;-44
2023/09/29 08:35:12;;;;;;;11.27;3.33;;;;;;;26.66;36.42;95174.47;5151972;27;20608;-43
2023/09/29 08:37:39;;;;;;;7.55;2.95;;;;;;;26.91;36.15;95172.44;5151527;27;20201;-42
2023/09/29 08:40:09;;;;;;;7.68;2.90;;;;;;;27.22;34.69;95173.94;5151760;27;20202;-44
2023/09/29 08:42:38;;;;;;;8.68;2.92;;;;;;;27.23;35.03;95144.00;5151736;27;20190;-44
2023/09/29 08:45:10;;;;;;;4.50;2.50;;;;;;;27.47;34.83;95178.16;5151319;27;20239;-44
2023/09/29 08:47:39;;;;;;;8.70;2.90;;;;;;;27.32;35.25;95167.31;5151222;27;20218;-45
2023/09/29 08:50:09;;;;;;;5.40;3.17;;;;;;;27.41;35.97;95169.34;5151384;27;20195;-44
2023/09/29 08:52:37;;;;;;;5.38;3.08;;;;;;;27.45;35.37;95175.72;5151197;27;20187;-44
2023/09/29 08:55:04;;;;;;;6.00;2.90;;;;;;;27.61;34.39;95173.44;5151445;27;20195;-44
2023/09/29 08:57:31;;;;;;;5.50;3.13;;;;;;;27.67;34.70;95175.13;5150907;27;20191;-43
2023/09/29 09:00:01;;;;;;;8.57;2.53;;;;;;;27.68;34.25;95182.78;5151046;27;20689;-44
2023/09/29 09:02:28;;;;;;;15.00;3.15;;;;;;;27.49;34.51;95155.84;5150817;27;20744;-45
2023/09/29 09:04:56;;;;;;;8.60;3.05;;;;;;;27.39;34.13;95168.78;5151059;27;20630;-44
2023/09/29 09:07:25;;;;;;;13.82;3.25;;;;;;;27.38;34.65;95174.28;5150989;27;20264;-46
2023/09/29 09:09:55;;;;;;;7.57;3.20;;;;;;;27.32;34.43;95172.56;5151295;27;20206;-44
2023/09/29 09:12:33;;;;;;;14.75;3.00;;;;;;;27.18;34.87;95179.88;5150794;27;20591;-45
2023/09/29 09:15:00;;;;;;;8.48;3.00;;;;;;;27.04;34.96;95184.53;5150715;27;20179;-44
2023/09/29 09:17:28;;;;;;;4.82;3.10;;;;;;;26.91;35.43;95174.25;5150723;27;20218;-44
2023/09/29 09:19:54;;;;;;;9.68;3.20;;;;;;;26.73;35.35;95177.78;5150787;27;20274;-44
2023/09/29 09:22:25;;;;;;;8.75;3.00;;;;;;;26.48;34.57;95178.75;5150628;27;20915;-43
2023/09/29 09:24:58;;;;;;;5.78;2.60;;;;;;;26.29;34.95;95174.56;5150509;27;20195;-44
2023/09/29 09:27:25;;;;;;;13.05;3.60;;;;;;;26.14;34.51;95174.19;5148039;27;20269;-43
2023/09/29 09:29:52;;;;;;;5.57;2.75;;;;;;;25.98;35.03;95170.34;5150690;27;20198;-43
2023/09/29 09:32:26;;;;;;;4.60;2.78;;;;;;;25.93;34.79;95173.66;5150061;27;20196;-44
2023/09/29 09:34:53;;;;;;;6.05;3.38;;;;;;;25.82;34.52;95171.78;5152095;27;20298;-44
2023/09/29 09:37:26;;;;;;;6.93;3.50;;;;;;;25.72;35.31;95171.47;5150481;27;20215;-44
2023/09/29 09:39:55;;;;;;;8.23;3.60;;;;;;;25.56;35.66;95145.84;5150123;27;20188;-44
2023/09/29 09:42:25;;;;;;;4.35;3.45;;;;;;;25.83;35.78;95168.13;5150296;27;20281;-44
2023/09/29 09:44:53;;;;;;;6.35;3.80;;;;;;;25.86;35.30;95172.91;5150601;27;20271;-44
2023/09/29 09:47:25;;;;;;;5.55;3.05;;;;;;;25.87;35.53;95169.31;5150352;27;20283;-45
2023/09/29 09:49:56;;;;;;;8.52;3.83;;;;;;;25.84;34.92;95169.72;5149660;27;20195;-45
2023/09/29 09:52:25;;;;;;;5.30;3.67;;;;;;;25.66;35.06;95138.28;5149872;27;20271;-44
2023/09/29 09:54:56;;;;;;;3.88;3.15;;;;;;;25.96;35.50;95180.28;5151453;27;20179;-45
2023/09/29 09:57:29;;;;;;;10.13;3.20;;;;;;;25.91;34.99;95174.91;5150811;27;20191;-44
2023/09/29 09:59:56;;;;;;;7.10;3.22;;;;;;;25.89;35.01;95169.88;5150322;27;20187;-44
2023/09/29 10:02:25;;;;;;;4.38;3.22;;;;;;;25.70;34.91;95155.97;5149686;27;20789;-44
2023/09/29 10:04:54;;;;;;;10.15;3.53;;;;;;;25.79;35.76;95172.22;5146788;27;20199;-43
2023/09/29 10:07:21;;;;;;;8.02;2.80;;;;;;;25.81;35.59;95166.75;5150218;27;20207;-44
2023/09/29 10:09:49;;;;;;;8.20;2.92;;;;;;;25.44;35.60;95091.59;5150425;27;20284;-43
2023/09/29 10:12:25;;;;;;;5.97;3.20;;;;;;;25.83;35.61;95165.53;5147500;27;20191;-44
2023/09/29 10:14:53;;;;;;;6.05;2.97;;;;;;;25.89;35.50;95162.00;5149712;27;20191;-44
2023/09/29 10:17:21;;;;;;;12.27;3.95;;;;;;;25.92;35.01;95158.94;5149681;27;20636;-45
2023/09/29 10:19:51;;;;;;;10.60;3.75;;;;;;;25.91;35.34;95153.94;5150059;27;20278;-43
2023/09/29 10:22:24;;;;;;;9.30;3.20;;;;;;;25.96;35.34;95151.44;5149347;27;20214;-45
2023/09/29 10:24:56;;;;;;;14.73;3.90;;;;;;;25.93;35.05;95154.50;5150241;27;20517;-43
2023/09/29 10:27:33;;;;;;;8.50;3.20;;;;;;;25.84;35.41;95150.59;5148826;27;20232;-43
2023/09/29 10:30:15;;;;;;;11.45;3.95;;;;;;;25.81;35.43;95143.16;5149813;27;20254;-49
2023/09/29 10:32:43;;;;;;;4.70;3.25;;;;;;;25.73;35.85;95137.19;5148364;27;20214;-44
2023/09/29 10:35:18;;;;;;;8.73;3.78;;;;;;;25.71;36.09;95139.22;5149865;27;20762;-45
2023/09/29 10:37:49;;;;;;;7.47;4.70;;;;;;;25.67;35.09;95132.81;5149144;27;20278;-43
2023/09/29 10:40:31;;;;;;;12.45;4.78;;;;;;;25.60;36.11;95132.09;5149711;27;20240;-43
2023/09/29 10:43:02;;;;;;;6.30;3.53;;;;;;;25.61;35.72;95132.91;5149009;27;20572;-45
2023/09/29 10:45:31;;;;;;;5.07;3.40;;;;;;;25.59;35.13;95122.66;5151043;27;20204;-43
2023/09/29 10:48:02;;;;;;;10.07;4.57;;;;;;;25.65;34.12;95126.22;5149525;27;20219;-45
2023/09/29 10:50:29;;;;;;;12.43;4.00;;;;;;;25.64;34.59;95120.16;5150892;27;20611;-44
2023/09/29 10:52:56;;;;;;;4.43;3.38;;;;;;;25.80;33.60;95133.72;5146075;27;20195;-44
2023/09/29 10:55:23;;;;;;;7.82;4.85;;;;;;;25.80;33.49;95125.84;5149783;27;20680;-45
2023/09/29 10:57:51;;;;;;;11.50;3.95;;;;;;;25.65;34.34;95120.97;5149661;27;20580;-44
2023/09/29 11:00:20;;;;;;;7.10;4.05;;;;;;;25.70;34.62;95121.13;5147192;27;20275;-43
2023/09/29 11:02:49;;;;;;;11.65;5.53;;;;;;;25.73;34.44;95115.41;5149603;27;20180;-44
2023/09/29 11:05:16;;;;;;;9.63;3.85;;;;;;;25.71;35.34;95120.09;5149856;27;20282;-45
2023/09/29 11:07:48;;;;;;;12.73;7.82;;;;;;;25.76;33.96;95117.59;5149251;27;20207;-46
2023/09/29 11:10:17;;;;;;;16.58;5.43;;;;;;;25.68;33.90;95125.75;5149312;27;20701;-43
2023/09/29 11:12:46;;;;;;;8.05;3.90;;;;;;;25.65;34.01;95113.91;5150173;27;20191;-44
2023/09/29 11:15:14;;;;;;;11.15;4.53;;;;;;;25.56;35.09;95109.19;5153526;27;20187;-46
2023/09/29 11:17:50;;;;;;;9.13;4.78;;;;;;;25.46;35.18;95113.13;5153026;27;20227;-43
2023/09/29 11:20:25;;;;;;;8.65;4.22;;;;;;;25.37;34.56;95111.81;5153324;27;20298;-44
2023/09/29 11:23:06;;;;;;;5.47;3.72;;;;;;;25.09;35.42;95083.56;5155981;27;20206;-43
2023/09/29 11:25:34;;;;;;;8.38;3.97;;;;;;;25.09;35.81;95101.09;5158365;27;20286;-43
2023/09/29 11:28:01;;;;;;;4.38;3.67;;;;;;;25.05;36.43;95105.13;5154072;27;20223;-44
2023/09/29 11:30:29;;;;;;;5.55;3.70;;;;;;;25.00;35.43;95096.09;5155286;27;20217;-44
2023/09/29 11:32:57;;;;;;;5.75;3.78;;;;;;;25.04;36.70;95096.44;5157971;27;20196;-45